Reecon Whale — 9HA2885 — position and weather

sailwx.info

Track history (hours):
 
Tides and Currents Weather Stations Pressure Air Temp Water Temp Dewpoint Dewpoint Depression Visibility Wind Speed Wind Dir Waves Ship Positions

Reecon Whale

Last reported at 2014-Dec-13 15:17 UTC. Time now 2014-Dec-22 09:58 UTC.
Position N 07°30' W 014°59'.
Warning: this ship's position is 8 days out of date.

Length 145 m; draft 8.4 m.

Type: Ship. MMSI: 256579000.

Date/timePositionNaut miles runAvg speedWind from/ knotsBaromVisibWave heightAir tempDewpointWater temp
2014-Dec-13 15:17N 07°30' W 014°59'2011.7
2014-Dec-13 13:33N 07°46' W 015°10'  
2014-Dec-05 16:33N 35°58' W 005°34'9 9.1
2014-Dec-05 15:33N 36°03' W 005°24'6 5.5
2014-Dec-05 14:28N 36°08' W 005°22'0 0.0
2014-Dec-05 13:31N 36°08' W 005°22'0 0.0
2014-Dec-05 12:28N 36°08' W 005°22'0 0.0
2014-Dec-05 11:19N 36°09' W 005°22'0 0.0
2014-Dec-05 09:31N 36°09' W 005°22'0 0.1
2014-Dec-05 08:31N 36°08' W 005°22'0 0.1
2014-Dec-05 07:28N 36°08' W 005°22'0 0.0
2014-Dec-05 06:28N 36°08' W 005°22'0 0.0
2014-Dec-05 05:31N 36°08' W 005°22'0 0.0
2014-Dec-05 04:31N 36°08' W 005°22'0 0.0
2014-Dec-05 03:33N 36°08' W 005°22'4 4.3
2014-Dec-05 02:33N 36°05' W 005°19'1110.8
2014-Dec-05 01:32N 36°06' W 005°06'19910.5
2014-Dec-04 06:33N 37°09' W 001°10'1111.4
2014-Dec-04 05:33N 37°16' W 000°59'1212.3
2014-Dec-04 04:33N 37°25' W 000°47'1313.1
2014-Dec-04 03:33N 37°33' W 000°35'1212.3
2014-Dec-04 02:34N 37°43' W 000°26'1212.2
2014-Dec-04 01:33N 37°53' W 000°17'9110.8
2014-Dec-03 17:05N 39°24' W 000°03'612.2
2014-Dec-03 16:33N 39°30' W 000°07'11 9.8
2014-Dec-03 15:28N 39°39' W 000°13'  
Track history (hours):
 
Tides and Currents Weather Stations Pressure Air Temp Water Temp Dewpoint Dewpoint Depression Visibility Wind Speed Wind Dir Waves Ship Positions

Reecon Whale

Last reported at 2014-Dec-13 15:17 UTC. Time now 2014-Dec-22 09:58 UTC.
Position N 07°30' W 014°59'.
Warning: this ship's position is 8 days out of date.

Length 145 m; draft 8.4 m.

Type: Ship. MMSI: 256579000.

Date/timePositionNaut miles runAvg speedWind from/ knotsBaromVisibWave heightAir tempDewpointWater temp
2014-Dec-13 15:17N 07°30' W 014°59'2011.7
2014-Dec-13 13:33N 07°46' W 015°10'  
2014-Dec-05 16:33N 35°58' W 005°34'9 9.1
2014-Dec-05 15:33N 36°03' W 005°24'6 5.5
2014-Dec-05 14:28N 36°08' W 005°22'0 0.0
2014-Dec-05 13:31N 36°08' W 005°22'0 0.0
2014-Dec-05 12:28N 36°08' W 005°22'0 0.0
2014-Dec-05 11:19N 36°09' W 005°22'0 0.0
2014-Dec-05 09:31N 36°09' W 005°22'0 0.1
2014-Dec-05 08:31N 36°08' W 005°22'0 0.1
2014-Dec-05 07:28N 36°08' W 005°22'0 0.0
2014-Dec-05 06:28N 36°08' W 005°22'0 0.0
2014-Dec-05 05:31N 36°08' W 005°22'0 0.0
2014-Dec-05 04:31N 36°08' W 005°22'0 0.0
2014-Dec-05 03:33N 36°08' W 005°22'4 4.3
2014-Dec-05 02:33N 36°05' W 005°19'1110.8
2014-Dec-05 01:32N 36°06' W 005°06'19910.5
2014-Dec-04 06:33N 37°09' W 001°10'1111.4
2014-Dec-04 05:33N 37°16' W 000°59'1212.3
2014-Dec-04 04:33N 37°25' W 000°47'1313.1
2014-Dec-04 03:33N 37°33' W 000°35'1212.3
2014-Dec-04 02:34N 37°43' W 000°26'1212.2
2014-Dec-04 01:33N 37°53' W 000°17'9110.8
2014-Dec-03 17:05N 39°24' W 000°03'612.2
2014-Dec-03 16:33N 39°30' W 000°07'11 9.8
2014-Dec-03 15:28N 39°39' W 000°13'  

Dump ship's entire track history